Time;durP1;ratioP1;P1;durP2;ratioP2;P2;SDS_P1;SDS_P2;PMS_P1;PMS_P2;Temp;Humidity;BMP_temperature;BMP_pressure;BME280_temperature;BME280_humidity;BME280_pressure;Samples;Min_cycle;Max_cycle;Signal;HPM_P1;HPM_P2
2021/12/21 00:00:18;;;;;;;10.10;7.20;;;0.80;99.90;;;;;;5012617;28;20243;-50
2021/12/21 00:02:46;;;;;;;9.37;6.77;;;0.80;99.90;;;;;;5012423;28;20172;-50
2021/12/21 00:05:18;;;;;;;8.77;6.43;;;0.80;99.90;;;;;;5012188;28;20458;-49
2021/12/21 00:07:44;;;;;;;8.30;6.70;;;0.80;99.90;;;;;;5012495;28;20740;-52
2021/12/21 00:10:12;;;;;;;9.67;7.20;;;0.70;99.90;;;;;;5011055;28;20812;-52
2021/12/21 00:12:46;;;;;;;8.27;6.60;;;0.70;99.90;;;;;;5010737;28;20506;-53
2021/12/21 00:15:25;;;;;;;8.87;6.90;;;0.70;99.90;;;;;;5008197;28;20454;-53
2021/12/21 00:25:18;;;;;;;8.30;6.53;;;0.70;99.90;;;;;;5008900;28;20493;-53
2021/12/21 00:27:45;;;;;;;7.77;6.47;;;0.70;99.90;;;;;;5011917;28;20464;-52
2021/12/21 00:30:11;;;;;;;8.30;6.30;;;0.70;99.90;;;;;;5012072;28;20431;-51
2021/12/21 00:32:37;;;;;;;7.60;5.63;;;0.60;99.90;;;;;;4994858;28;20427;-54
2021/12/21 00:35:03;;;;;;;6.83;5.47;;;0.60;99.90;;;;;;5011924;28;20223;-55
2021/12/21 00:37:29;;;;;;;7.93;5.70;;;0.60;99.90;;;;;;5011606;28;20168;-51
2021/12/21 00:39:54;;;;;;;8.20;5.87;;;0.60;99.90;;;;;;5011202;28;20434;-53
2021/12/21 00:42:20;;;;;;;8.90;5.73;;;0.60;99.90;;;;;;5011760;28;20246;-52
2021/12/21 00:44:46;;;;;;;7.33;5.30;;;0.60;99.90;;;;;;4994104;28;20720;-54
2021/12/21 00:47:14;;;;;;;7.20;5.63;;;0.60;99.90;;;;;;5012307;28;20180;-53
2021/12/21 00:49:45;;;;;;;8.23;5.10;;;0.50;99.90;;;;;;5011989;28;20427;-50
2021/12/21 00:52:10;;;;;;;10.37;5.90;;;0.50;99.90;;;;;;4994593;28;20995;-53
2021/12/21 00:54:36;;;;;;;8.67;6.73;;;0.50;99.90;;;;;;5011876;28;20523;-49
2021/12/21 00:57:04;;;;;;;8.23;5.97;;;0.50;99.90;;;;;;5011605;28;20255;-53
2021/12/21 00:59:30;;;;;;;8.10;6.30;;;0.50;99.90;;;;;;5011979;28;20195;-54
2021/12/21 01:01:56;;;;;;;8.53;6.10;;;0.50;99.90;;;;;;5011759;28;20411;-50
2021/12/21 01:04:28;;;;;;;8.10;6.23;;;0.50;99.90;;;;;;5011929;28;20455;-51
2021/12/21 01:12:25;;;;;;;6.43;5.10;;;0.40;99.90;;;;;;5011782;28;20418;-52
2021/12/21 01:15:07;;;;;;;7.67;5.40;;;0.40;99.90;;;;;;5011523;28;20946;-49
2021/12/21 01:17:47;;;;;;;8.47;5.50;;;0.40;99.90;;;;;;5011780;28;20498;-55
2021/12/21 01:20:26;;;;;;;6.63;5.20;;;0.40;99.90;;;;;;5011713;28;20427;-55
2021/12/21 01:23:18;;;;;;;8.07;5.47;;;0.40;99.90;;;;;;4994122;28;20446;-53
2021/12/21 01:28:16;;;;;;;7.73;5.10;;;0.40;99.90;;;;;;5008922;28;20423;-50
2021/12/21 01:33:38;;;;;;;5.83;5.03;;;0.20;99.90;;;;;;5015733;28;20506;-53
2021/12/21 01:35:55;;;;;;;5.90;5.03;;;0.20;99.90;;;;;;5015189;28;20184;-53
2021/12/21 01:43:32;;;;;;;7.77;5.30;;;0.00;99.90;;;;;;5015322;28;20188;-54
2021/12/21 01:51:26;;;;;;;6.33;4.80;;;-0.20;99.90;;;;;;5015357;28;20418;-51
2021/12/21 01:53:52;;;;;;;6.90;4.83;;;-0.20;99.90;;;;;;5015266;28;20831;-54
2021/12/21 01:56:19;;;;;;;6.70;4.70;;;-0.30;99.90;;;;;;5014679;28;20188;-50
2021/12/21 01:58:45;;;;;;;6.33;4.93;;;-0.20;99.90;;;;;;5015383;28;21080;-51
2021/12/21 02:01:15;;;;;;;6.90;5.20;;;-0.20;99.90;;;;;;5014911;28;20415;-50
2021/12/21 02:03:47;;;;;;;6.27;5.03;;;-0.20;99.90;;;;;;5014933;28;20315;-53
2021/12/21 02:06:16;;;;;;;6.27;4.83;;;-0.30;99.90;;;;;;5014665;28;20412;-54
2021/12/21 02:08:42;;;;;;;7.33;4.93;;;-0.40;99.90;;;;;;5013547;28;20426;-53
2021/12/21 02:11:08;;;;;;;5.33;4.53;;;-0.40;99.90;;;;;;5013396;28;20927;-54
2021/12/21 02:13:36;;;;;;;6.70;4.60;;;-0.40;99.90;;;;;;5014900;28;20514;-51
2021/12/21 02:16:03;;;;;;;6.10;4.67;;;-0.40;99.90;;;;;;5014549;28;20178;-52
2021/12/21 02:18:36;;;;;;;6.07;4.70;;;-0.40;99.90;;;;;;5014513;28;21143;-52
2021/12/21 02:21:20;;;;;;;7.17;4.93;;;-0.40;99.90;;;;;;5014674;28;20396;-52
2021/12/21 02:23:47;;;;;;;6.13;4.60;;;-0.30;99.90;;;;;;5014616;28;20454;-52
2021/12/21 02:29:27;;;;;;;6.10;4.57;;;-0.40;99.90;;;;;;5014381;28;20804;-50
2021/12/21 02:31:51;;;;;;;5.63;4.40;;;-0.40;99.90;;;;;;5014152;28;20415;-50
2021/12/21 02:34:18;;;;;;;5.83;4.57;;;-0.40;99.90;;;;;;5014129;28;20424;-53
2021/12/21 02:36:47;;;;;;;4.90;3.93;;;-0.40;99.90;;;;;;5013237;28;20418;-52
2021/12/21 02:39:13;;;;;;;7.47;5.00;;;-0.40;99.90;;;;;;5014094;28;20485;-50
2021/12/21 02:41:39;;;;;;;6.07;4.20;;;-0.50;99.90;;;;;;5014263;28;20423;-51
2021/12/21 02:44:06;;;;;;;6.97;4.87;;;-0.50;99.90;;;;;;5014038;28;20287;-51
2021/12/21 02:46:31;;;;;;;5.97;4.23;;;-0.50;99.90;;;;;;5013915;28;20972;-50
2021/12/21 02:48:57;;;;;;;5.20;4.53;;;-0.50;99.90;;;;;;5014261;28;20562;-51
2021/12/21 02:51:23;;;;;;;6.53;4.73;;;-0.50;99.90;;;;;;5013991;28;20173;-50
2021/12/21 02:53:49;;;;;;;5.77;4.20;;;-0.50;99.90;;;;;;5014177;28;20635;-52
2021/12/21 02:56:15;;;;;;;4.80;4.30;;;-0.50;99.90;;;;;;5013681;28;20566;-54
2021/12/21 02:58:41;;;;;;;5.07;4.47;;;-0.50;99.90;;;;;;5013968;28;20176;-50
2021/12/21 03:01:09;;;;;;;5.60;4.40;;;-0.50;99.90;;;;;;5013732;28;20770;-49
2021/12/21 03:03:35;;;;;;;7.27;4.20;;;-0.50;99.90;;;;;;5013905;28;20824;-51
2021/12/21 03:06:03;;;;;;;5.37;4.33;;;-0.50;99.90;;;;;;5013479;28;20411;-53
2021/12/21 03:08:42;;;;;;;7.13;4.73;;;-0.40;99.90;;;;;;5014276;28;20172;-51
2021/12/21 03:11:24;;;;;;;5.17;4.50;;;-0.50;99.90;;;;;;5013482;28;20815;-50
2021/12/21 03:14:05;;;;;;;5.40;4.30;;;-0.50;99.90;;;;;;5013831;28;20396;-54
2021/12/21 03:16:36;;;;;;;4.40;4.00;;;-0.50;99.90;;;;;;5013244;28;20435;-50
2021/12/21 03:19:05;;;;;;;4.53;3.83;;;-0.60;99.90;;;;;;5013494;28;20451;-53
2021/12/21 03:21:31;;;;;;;4.97;4.37;;;-0.60;99.90;;;;;;5012090;28;20423;-53
2021/12/21 03:23:57;;;;;;;5.43;4.07;;;-0.60;99.90;;;;;;5013413;28;20509;-52
2021/12/21 03:26:22;;;;;;;5.17;4.50;;;-0.60;99.90;;;;;;5013067;28;20416;-49
2021/12/21 03:28:48;;;;;;;4.70;3.77;;;-0.60;99.90;;;;;;5013320;28;20196;-49
2021/12/21 03:31:14;;;;;;;4.73;4.13;;;-0.60;99.90;;;;;;5013321;28;20546;-49
2021/12/21 03:33:39;;;;;;;6.60;4.33;;;-0.60;99.90;;;;;;5013206;28;20428;-49
2021/12/21 03:36:05;;;;;;;4.70;3.97;;;-0.70;99.90;;;;;;5011812;28;20246;-49
2021/12/21 03:38:33;;;;;;;4.50;3.83;;;-0.70;99.90;;;;;;5012989;28;20207;-49
2021/12/21 03:41:04;;;;;;;4.00;3.60;;;-0.80;99.90;;;;;;5013225;28;20250;-49
2021/12/21 03:43:33;;;;;;;5.97;4.13;;;-0.80;99.90;;;;;;5009402;28;20462;-49
2021/12/21 03:46:09;;;;;;;5.00;3.70;;;-0.80;99.90;;;;;;5012638;28;20415;-52
2021/12/21 03:48:36;;;;;;;5.10;4.07;;;-0.90;99.90;;;;;;5013130;28;20888;-50
2021/12/21 03:51:02;;;;;;;4.40;3.90;;;-0.90;99.90;;;;;;5013050;28;20412;-49
2021/12/21 03:53:28;;;;;;;5.70;4.07;;;-0.90;99.90;;;;;;5012869;28;20414;-49
2021/12/21 03:56:07;;;;;;;4.77;4.00;;;-0.90;99.90;;;;;;5012616;28;20403;-50
2021/12/21 03:58:32;;;;;;;4.63;3.67;;;-0.80;99.90;;;;;;5012774;28;20207;-54
2021/12/21 04:00:58;;;;;;;5.40;4.50;;;-0.80;99.90;;;;;;5012818;28;20463;-51
2021/12/21 04:03:24;;;;;;;4.73;4.00;;;-0.80;99.90;;;;;;5012772;28;20168;-51
2021/12/21 04:05:49;;;;;;;5.50;4.57;;;-0.80;99.90;;;;;;5012225;28;20697;-49
2021/12/21 04:08:15;;;;;;;6.10;4.37;;;-0.80;99.90;;;;;;5012787;28;20749;-49
2021/12/21 04:10:41;;;;;;;5.30;4.40;;;-0.90;99.90;;;;;;5012365;28;20204;-50
2021/12/21 04:13:09;;;;;;;5.77;3.70;;;-0.80;99.90;;;;;;5012619;28;20668;-50
2021/12/21 04:15:42;;;;;;;5.23;4.00;;;-0.90;99.90;;;;;;5012133;28;20165;-50
2021/12/21 04:18:09;;;;;;;6.13;4.33;;;-0.90;99.90;;;;;;5012658;28;20461;-50
2021/12/21 04:20:34;;;;;;;4.50;4.00;;;-0.90;99.90;;;;;;5012399;28;20458;-53
2021/12/21 04:23:00;;;;;;;5.37;3.97;;;-0.90;99.90;;;;;;5011151;28;20419;-49
2021/12/21 04:25:25;;;;;;;4.17;3.77;;;-0.90;99.90;;;;;;5011858;28;20216;-53
2021/12/21 04:27:51;;;;;;;4.77;4.10;;;-0.90;99.90;;;;;;5012575;28;20200;-53
2021/12/21 04:30:17;;;;;;;5.03;4.13;;;-0.90;99.90;;;;;;5012353;28;20184;-49
2021/12/21 04:32:43;;;;;;;4.50;3.70;;;-0.90;99.90;;;;;;5012223;28;20169;-49
2021/12/21 04:35:09;;;;;;;4.50;4.10;;;-0.90;99.90;;;;;;5012107;28;20484;-49
2021/12/21 04:37:41;;;;;;;5.13;3.87;;;-0.80;99.90;;;;;;5012098;28;20609;-49
2021/12/21 04:40:12;;;;;;;5.00;3.97;;;-0.90;99.90;;;;;;5012142;28;20847;-49
2021/12/21 04:42:38;;;;;;;5.83;4.70;;;-0.90;99.90;;;;;;5012095;28;20951;-51
2021/12/21 04:45:04;;;;;;;4.30;3.90;;;-0.90;99.90;;;;;;5010637;28;20455;-53
2021/12/21 04:47:30;;;;;;;5.80;4.43;;;-0.90;99.90;;;;;;5011947;28;20668;-51
2021/12/21 04:49:55;;;;;;;4.50;3.90;;;-0.90;99.90;;;;;;5012086;28;20459;-49
2021/12/21 04:52:21;;;;;;;5.10;3.80;;;-1.00;99.90;;;;;;5011874;28;20542;-50
2021/12/21 04:54:46;;;;;;;4.67;3.60;;;-1.00;99.90;;;;;;5011640;28;20255;-52
2021/12/21 04:57:12;;;;;;;4.87;4.03;;;-1.10;99.90;;;;;;5011867;28;20176;-53
2021/12/21 04:59:38;;;;;;;5.40;4.47;;;-1.10;99.90;;;;;;5011131;28;20188;-50
2021/12/21 05:02:03;;;;;;;6.13;4.40;;;-1.10;99.90;;;;;;5011944;28;20566;-51
2021/12/21 05:04:29;;;;;;;4.57;4.10;;;-1.10;99.90;;;;;;5011763;28;20202;-53
2021/12/21 05:06:55;;;;;;;5.70;4.27;;;-1.10;99.90;;;;;;5011614;28;20534;-50
2021/12/21 05:09:26;;;;;;;5.80;4.30;;;-1.10;99.90;;;;;;5010450;28;20301;-50
2021/12/21 05:12:00;;;;;;;10.30;7.73;;;-1.20;99.90;;;;;;5046595;22;20719;-50
2021/12/21 05:14:25;;;;;;;12.43;10.17;;;-1.20;99.90;;;;;;5030693;28;20419;-52
2021/12/21 05:16:51;;;;;;;4.77;3.87;;;-0.60;99.90;;;;;;5030513;28;20421;-52
2021/12/21 05:19:16;;;;;;;4.27;3.87;;;-1.20;99.90;;;;;;5031120;28;20180;-50
2021/12/21 05:21:42;;;;;;;4.63;3.53;;;-1.30;99.90;;;;;;5030779;28;20196;-49
2021/12/21 05:24:07;;;;;;;6.30;4.70;;;-1.30;99.90;;;;;;5030986;28;20187;-50
2021/12/21 05:26:33;;;;;;;8.20;6.90;;;-1.20;99.90;;;;;;5030868;28;20229;-50
2021/12/21 05:28:59;;;;;;;4.37;3.53;;;;;;;;;;5031039;28;20225;-54
2021/12/21 05:31:25;;;;;;;6.50;3.87;;;-1.30;99.90;;;;;;5030706;28;20188;-49
2021/12/21 05:33:52;;;;;;;5.57;4.07;;;;;;;;;;5031275;28;20259;-51
2021/12/21 05:36:20;;;;;;;5.17;3.80;;;-1.30;99.90;;;;;;5030852;28;20176;-51
2021/12/21 05:38:50;;;;;;;4.30;3.73;;;;;;;;;;5031232;28;20760;-51
2021/12/21 05:41:24;;;;;;;4.50;3.60;;;-1.40;99.90;;;;;;5030928;28;20501;-50
2021/12/21 05:43:50;;;;;;;5.70;4.37;;;-1.30;99.90;;;;;;5031059;28;20446;-51
2021/12/21 05:46:16;;;;;;;6.30;3.77;;;-1.30;99.90;;;;;;5030503;28;20935;-50
2021/12/21 05:48:41;;;;;;;7.03;3.83;;;-1.40;99.90;;;;;;5031101;28;20411;-51
2021/12/21 05:51:07;;;;;;;5.90;4.17;;;-1.40;99.90;;;;;;5030923;28;20250;-50
2021/12/21 05:53:33;;;;;;;5.03;3.80;;;;;;;;;;5030919;28;20172;-53
2021/12/21 05:55:58;;;;;;;6.03;4.07;;;-1.40;99.90;;;;;;5030885;28;20259;-50
2021/12/21 05:58:24;;;;;;;5.93;4.07;;;;;;;;;;5030829;28;20238;-50
2021/12/21 06:00:50;;;;;;;4.73;3.77;;;-1.40;99.90;;;;;;5031124;28;20200;-50
2021/12/21 06:03:15;;;;;;;4.73;3.77;;;;;;;;;;5030711;28;20484;-52
2021/12/21 06:05:42;;;;;;;4.87;3.70;;;;;;;;;;5030765;28;20191;-49
2021/12/21 06:08:08;;;;;;;5.27;4.03;;;-1.30;99.90;;;;;;5030627;28;20222;-50
2021/12/21 06:10:38;;;;;;;4.90;3.70;;;-1.30;99.90;;;;;;5023523;28;20455;-50
2021/12/21 06:25:09;;;;;;;5.73;3.50;;;-1.10;99.90;;;;;;5034423;28;20414;-50
2021/12/21 06:26:14;;;;;;;4.43;3.80;;;-0.60;99.90;;;;;;5026060;28;20786;-50
2021/12/21 06:28:41;;;;;;;5.57;3.70;;;-1.20;99.90;;;;;;5034284;28;20767;-50
2021/12/21 06:31:07;;;;;;;4.67;3.50;;;;;;;;;;5033789;28;20425;-53
2021/12/21 06:33:33;;;;;;;4.83;4.00;;;;;;;;;;5034122;28;20407;-52
2021/12/21 06:36:00;;;;;;;6.07;3.40;;;;;;;;;;5033442;28;21085;-49
2021/12/21 06:38:26;;;;;;;4.07;3.57;;;;;;;;;;5034460;28;20879;-52
2021/12/21 06:40:52;;;;;;;4.70;3.80;;;-1.20;99.90;;;;;;5033649;28;20446;-49
2021/12/21 06:43:18;;;;;;;4.43;3.70;;;;;;;;;;5033839;28;20164;-52
2021/12/21 06:45:54;;;;;;;5.00;4.20;;;;;;;;;;5033366;28;20472;-56
2021/12/21 06:53:33;;;;;;;5.00;4.20;;;-1.40;99.90;;;;;;5034067;28;20425;-53
2021/12/21 06:55:59;;;;;;;4.80;4.27;;;-1.00;99.90;;;;;;5033710;28;20418;-50
2021/12/21 06:58:24;;;;;;;5.20;3.97;;;-1.20;99.90;;;;;;5033581;28;20413;-53
2021/12/21 07:00:52;;;;;;;5.83;4.17;;;-1.20;99.90;;;;;;5033649;28;20306;-50
2021/12/21 07:03:19;;;;;;;5.77;4.70;;;-1.10;99.90;;;;;;5033148;28;20493;-50
2021/12/21 07:05:46;;;;;;;5.03;4.23;;;-1.10;99.90;;;;;;5033385;28;20820;-46
2021/12/21 07:08:16;;;;;;;6.03;4.90;;;-1.30;99.90;;;;;;5033714;28;20411;-50
2021/12/21 07:10:50;;;;;;;5.80;4.20;;;;;;;;;;5033360;28;20540;-49
2021/12/21 07:18:44;;;;;;;8.07;4.33;;;-1.00;99.90;;;;;;5013877;28;20428;-51
2021/12/21 07:21:10;;;;;;;5.03;4.00;;;;;;;;;;5013568;28;20427;-52
2021/12/21 07:23:36;;;;;;;7.43;4.60;;;-1.10;99.90;;;;;;5012956;28;20188;-49
2021/12/21 07:26:02;;;;;;;5.13;4.10;;;-1.00;99.90;;;;;;5013243;28;20176;-50
2021/12/21 07:28:27;;;;;;;5.00;4.43;;;-0.90;99.90;;;;;;5023839;28;20180;-54
2021/12/21 07:30:53;;;;;;;6.87;5.00;;;-0.90;99.90;;;;;;5033124;28;20278;-56
2021/12/21 07:33:19;;;;;;;7.43;4.73;;;-0.90;99.90;;;;;;5033086;28;20176;-55
2021/12/21 07:35:44;;;;;;;7.07;5.00;;;-0.80;99.90;;;;;;5032713;28;20468;-49
2021/12/21 07:38:10;;;;;;;5.67;4.80;;;-0.80;99.90;;;;;;5033126;28;20203;-53
2021/12/21 07:40:37;;;;;;;7.30;4.77;;;-0.70;99.90;;;;;;5032960;28;20203;-49
2021/12/21 07:43:03;;;;;;;6.60;4.50;;;-0.60;99.90;;;;;;5032870;28;20172;-53
2021/12/21 07:45:29;;;;;;;5.63;4.90;;;-0.60;99.90;;;;;;5032609;28;20461;-50
2021/12/21 07:47:55;;;;;;;5.97;4.87;;;-0.50;99.90;;;;;;5032850;28;20411;-51
2021/12/21 07:50:21;;;;;;;6.80;5.37;;;-0.50;99.90;;;;;;5032700;28;20182;-54
2021/12/21 07:52:47;;;;;;;7.90;6.43;;;-0.40;99.90;;;;;;5032686;28;20184;-52
2021/12/21 07:55:13;;;;;;;5.50;4.90;;;-0.30;99.90;;;;;;5032421;28;20872;-53
2021/12/21 07:57:39;;;;;;;5.03;4.50;;;-0.20;99.90;;;;;;5032668;28;20419;-56
2021/12/21 08:00:09;;;;;;;5.80;5.20;;;-0.20;99.90;;;;;;5032751;28;20258;-51
2021/12/21 08:02:35;;;;;;;6.77;4.53;;;0.00;99.90;;;;;;5032613;28;20200;-50
2021/12/21 08:05:05;;;;;;;4.27;3.63;;;0.00;99.90;;;;;;5032250;28;20466;-50
2021/12/21 08:07:35;;;;;;;3.90;3.40;;;0.10;99.90;;;;;;5032688;28;20198;-50
2021/12/21 08:10:16;;;;;;;4.47;3.43;;;0.20;99.90;;;;;;5032700;28;20415;-49
2021/12/21 08:12:43;;;;;;;4.40;3.60;;;0.40;99.90;;;;;;5032644;28;20399;-49
2021/12/21 08:15:09;;;;;;;4.13;3.60;;;0.60;99.90;;;;;;5032285;28;20465;-50
2021/12/21 08:17:34;;;;;;;3.40;3.03;;;1.20;99.90;;;;;;5032366;28;20411;-50
2021/12/21 08:20:00;;;;;;;4.30;3.30;;;1.60;99.90;;;;;;5032216;28;20172;-49
2021/12/21 08:22:25;;;;;;;4.73;2.90;;;2.30;99.90;;;;;;5032215;28;20227;-50
2021/12/21 08:24:51;;;;;;;3.10;2.80;;;3.10;99.90;;;;;;5031942;28;20211;-49
2021/12/21 08:27:16;;;;;;;2.93;2.60;;;4.20;99.90;;;;;;5031014;28;20180;-50
2021/12/21 08:29:42;;;;;;;4.07;2.53;;;5.10;99.90;;;;;;5032211;28;20167;-50
2021/12/21 08:32:08;;;;;;;3.10;2.70;;;5.80;99.90;;;;;;5031909;28;20603;-51
2021/12/21 08:34:33;;;;;;;3.17;2.73;;;6.30;99.40;;;;;;5031429;28;20262;-53
2021/12/21 08:36:59;;;;;;;2.40;2.20;;;6.70;98.60;;;;;;5031730;28;20180;-53
2021/12/21 08:39:26;;;;;;;2.40;2.20;;;6.90;97.40;;;;;;5032105;28;20186;-50
2021/12/21 08:41:57;;;;;;;2.73;2.50;;;7.10;97.40;;;;;;5031950;28;20192;-54
2021/12/21 08:44:27;;;;;;;2.43;2.10;;;7.30;97.00;;;;;;5031870;28;20649;-50
2021/12/21 08:46:55;;;;;;;2.70;2.50;;;7.70;96.60;;;;;;5031682;28;20172;-50
2021/12/21 08:49:21;;;;;;;3.70;2.43;;;8.10;96.00;;;;;;5031875;28;20225;-50
2021/12/21 08:51:46;;;;;;;2.40;2.20;;;8.50;95.20;;;;;;5031984;28;20606;-51
2021/12/21 08:54:13;;;;;;;2.50;2.10;;;8.80;94.80;;;;;;5031766;28;20687;-50
2021/12/21 08:56:39;;;;;;;2.60;2.40;;;9.00;94.40;;;;;;5031560;28;20171;-52
2021/12/21 08:59:04;;;;;;;2.40;2.20;;;9.30;94.40;;;;;;5031692;28;20249;-53
2021/12/21 09:01:30;;;;;;;1.87;1.77;;;10.00;93.50;;;;;;5031616;28;20191;-51
2021/12/21 09:03:57;;;;;;;3.43;2.30;;;11.30;92.80;;;;;;5031447;28;20641;-50
2021/12/21 09:06:24;;;;;;;3.13;2.10;;;13.30;90.70;;;;;;5031403;28;20182;-52
2021/12/21 09:08:49;;;;;;;2.00;1.90;;;15.70;84.80;;;;;;5031590;28;20617;-54
2021/12/21 09:11:15;;;;;;;2.37;1.83;;;18.00;76.10;;;;;;5031210;28;20234;-51
2021/12/21 09:13:40;;;;;;;2.50;2.17;;;20.20;67.00;;;;;;5031961;28;20267;-50
2021/12/21 09:16:06;;;;;;;2.28;1.92;;;22.00;59.10;;;;;;5031188;28;20273;-50
2021/12/21 09:18:32;;;;;;;2.35;2.10;;;23.60;54.50;;;;;;5031655;28;20172;-51
2021/12/21 09:20:57;;;;;;;2.05;1.70;;;24.90;51.00;;;;;;5031470;28;20688;-51
2021/12/21 09:23:23;;;;;;;1.80;1.70;;;26.00;47.40;;;;;;5031468;28;20168;-50
2021/12/21 09:25:49;;;;;;;2.20;2.00;;;26.90;44.60;;;;;;5031237;28;20188;-51
2021/12/21 09:28:14;;;;;;;2.33;2.13;;;27.70;42.70;;;;;;5031169;28;20207;-53
2021/12/21 09:30:40;;;;;;;1.80;1.70;;;28.60;40.90;;;;;;5030503;28;20689;-51
2021/12/21 09:33:05;;;;;;;1.83;1.73;;;29.40;39.40;;;;;;5031409;28;20184;-51
2021/12/21 09:35:31;;;;;;;2.05;1.88;;;30.20;37.70;;;;;;5031115;28;20183;-50
2021/12/21 09:37:57;;;;;;;2.45;2.25;;;31.00;36.20;;;;;;5032231;28;20250;-50
2021/12/21 09:40:30;;;;;;;2.40;2.20;;;31.90;35.00;;;;;;5038069;28;20171;-48
2021/12/21 09:42:58;;;;;;;2.60;2.40;;;32.50;33.50;;;;;;5038382;28;20172;-49
2021/12/21 09:45:24;;;;;;;2.40;2.10;;;32.90;32.70;;;;;;5036143;28;20226;-49
2021/12/21 09:47:50;;;;;;;2.33;2.05;;;33.40;32.00;;;;;;5036790;28;20594;-49
2021/12/21 09:50:18;;;;;;;2.33;2.10;;;33.70;31.40;;;;;;5031731;28;20219;-50
2021/12/21 09:52:44;;;;;;;2.42;1.95;;;33.90;29.90;;;;;;5033852;28;20172;-49
2021/12/21 09:55:13;;;;;;;2.67;2.38;;;33.70;29.80;;;;;;5033959;28;20188;-52
2021/12/21 09:57:40;;;;;;;2.50;2.30;;;33.40;29.60;;;;;;5034693;28;20629;-53
2021/12/21 10:00:10;;;;;;;3.20;2.78;;;33.40;29.70;;;;;;5034519;28;20245;-50
2021/12/21 10:02:36;;;;;;;5.90;4.97;;;33.70;29.60;;;;;;5034342;28;20192;-49
2021/12/21 10:05:07;;;;;;;2.75;2.55;;;34.10;29.10;;;;;;5034136;28;20208;-50
2021/12/21 10:07:34;;;;;;;3.90;3.33;;;34.40;28.90;;;;;;5034592;28;20641;-55
2021/12/21 10:10:03;;;;;;;6.00;5.40;;;34.80;28.60;;;;;;5034583;28;20168;-54
2021/12/21 10:12:31;;;;;;;6.63;6.03;;;35.30;28.40;;;;;;5034434;28;20215;-54
2021/12/21 10:15:06;;;;;;;2.80;2.60;;;35.80;28.10;;;;;;5034079;28;20459;-52
2021/12/21 10:17:35;;;;;;;2.30;2.10;;;36.20;27.40;;;;;;5034491;28;20167;-50
2021/12/21 10:20:06;;;;;;;2.67;2.40;;;36.40;26.90;;;;;;5034458;28;20168;-54
2021/12/21 10:22:32;;;;;;;3.80;2.78;;;36.00;26.30;;;;;;5030329;28;20711;-52
2021/12/21 10:24:58;;;;;;;2.65;2.45;;;35.40;26.70;;;;;;5033201;28;20255;-54
2021/12/21 10:27:25;;;;;;;3.33;2.20;;;35.20;26.80;;;;;;5034242;28;20299;-50
2021/12/21 10:29:58;;;;;;;2.42;2.05;;;35.40;27.00;;;;;;5034186;28;20699;-56
2021/12/21 10:32:30;;;;;;;2.50;2.30;;;35.90;26.60;;;;;;5034090;28;20203;-54
2021/12/21 10:34:58;;;;;;;2.72;2.40;;;36.20;26.30;;;;;;5033722;28;20568;-55
2021/12/21 10:37:27;;;;;;;2.55;2.35;;;36.40;25.70;;;;;;5033750;28;20168;-54
2021/12/21 10:40:23;;;;;;;2.40;2.20;;;36.10;25.70;;;;;;5034078;28;20173;-52
2021/12/21 10:42:52;;;;;;;2.83;2.30;;;36.10;26.00;;;;;;5033117;28;20184;-54
2021/12/21 10:45:23;;;;;;;2.60;2.40;;;36.00;25.80;;;;;;5033767;28;20530;-53
2021/12/21 10:47:50;;;;;;;2.25;2.05;;;36.10;25.00;;;;;;5033551;28;20585;-55
2021/12/21 10:50:15;;;;;;;2.55;2.35;;;35.10;25.40;;;;;;5042125;28;20652;-50
2021/12/21 10:52:48;;;;;;;2.85;2.55;;;34.70;25.60;;;;;;5047461;28;20190;-51
2021/12/21 10:55:13;;;;;;;2.33;2.13;;;34.80;26.00;;;;;;5053378;28;20292;-49
2021/12/21 10:57:39;;;;;;;2.20;2.00;;;35.00;25.90;;;;;;5037431;28;20612;-56
2021/12/21 11:00:13;;;;;;;2.40;2.20;;;35.10;25.60;;;;;;5052604;28;20660;-54
2021/12/21 11:02:40;;;;;;;2.50;2.30;;;35.30;25.00;;;;;;5013765;28;20196;-51
2021/12/21 11:05:09;;;;;;;3.88;2.50;;;35.00;24.80;;;;;;5027634;28;20194;-49
2021/12/21 11:07:45;;;;;;;2.30;2.10;;;34.30;25.30;;;;;;5035331;28;20175;-50
2021/12/21 11:10:16;;;;;;;2.22;2.03;;;34.10;25.90;;;;;;5033775;28;20213;-50
2021/12/21 11:12:43;;;;;;;2.40;2.20;;;34.30;25.80;;;;;;5031614;28;20195;-50
2021/12/21 11:15:11;;;;;;;2.60;2.05;;;34.40;25.80;;;;;;5041654;28;20564;-50
2021/12/21 11:17:37;;;;;;;2.55;2.35;;;34.70;25.60;;;;;;5048384;28;20175;-49
2021/12/21 11:20:04;;;;;;;2.47;2.25;;;34.70;24.80;;;;;;5044691;28;20699;-54
2021/12/21 11:22:32;;;;;;;2.40;2.13;;;32.80;25.60;;;;;;5044949;28;20202;-52
2021/12/21 11:25:00;;;;;;;3.70;2.55;;;31.80;26.80;;;;;;5036041;28;20264;-49
2021/12/21 11:27:28;;;;;;;2.47;2.28;;;31.80;26.40;;;;;;5033028;28;20259;-51
2021/12/21 11:29:59;;;;;;;1.98;1.88;;;29.90;27.00;;;;;;5033219;28;20799;-51
2021/12/21 11:32:28;;;;;;;2.60;2.40;;;29.20;27.30;;;;;;5034507;28;20218;-49
2021/12/21 11:37:36;;;;;;;2.30;2.10;;;28.40;27.70;;;;;;5031840;28;20209;-49
2021/12/21 11:40:05;;;;;;;2.00;1.80;;;28.40;28.00;;;;;;5032808;28;20203;-50
2021/12/21 11:42:51;;;;;;;2.55;2.05;;;28.70;27.30;;;;;;5034525;28;20187;-49
2021/12/21 11:45:17;;;;;;;3.63;1.98;;;29.40;27.20;;;;;;5030775;28;20219;-52
2021/12/21 11:48:11;;;;;;;2.72;1.95;;;29.50;26.80;;;;;;5032647;28;20681;-50
2021/12/21 11:50:45;;;;;;;1.90;1.70;;;28.90;27.00;;;;;;5032589;28;20202;-50
2021/12/21 11:53:13;;;;;;;2.40;2.10;;;28.70;27.40;;;;;;5032321;28;20167;-51
2021/12/21 11:55:41;;;;;;;1.55;1.45;;;28.80;27.20;;;;;;5033146;28;20199;-52
2021/12/21 11:58:20;;;;;;;2.25;1.80;;;28.90;27.10;;;;;;5031403;28;20640;-51
2021/12/21 12:00:59;;;;;;;1.88;1.52;;;28.60;27.30;;;;;;5052112;28;20606;-51
2021/12/21 12:03:29;;;;;;;2.83;2.20;;;28.70;27.20;;;;;;5045422;28;20663;-55
2021/12/21 12:05:59;;;;;;;2.15;1.75;;;28.80;27.40;;;;;;5036965;28;20222;-55
2021/12/21 12:08:27;;;;;;;1.67;1.58;;;29.10;26.90;;;;;;5033066;28;20168;-56
2021/12/21 12:10:58;;;;;;;1.98;1.70;;;29.00;27.00;;;;;;5044418;28;20207;-55
2021/12/21 12:13:29;;;;;;;2.22;2.03;;;29.20;27.20;;;;;;5034647;28;20183;-53
2021/12/21 12:16:20;;;;;;;2.33;2.00;;;29.40;27.00;;;;;;5046993;28;20171;-51
2021/12/21 12:18:48;;;;;;;2.13;1.83;;;29.50;27.00;;;;;;5024185;28;20740;-52
2021/12/21 12:21:16;;;;;;;2.00;1.67;;;29.60;27.40;;;;;;5040331;28;20187;-55
2021/12/21 12:23:50;;;;;;;2.10;1.70;;;29.40;27.10;;;;;;5034314;28;20168;-52
2021/12/21 12:26:33;;;;;;;2.13;1.80;;;28.90;26.60;;;;;;5034304;28;20181;-50
2021/12/21 12:29:19;;;;;;;2.60;2.00;;;27.50;27.30;;;;;;5033193;28;20198;-50
2021/12/21 12:32:06;;;;;;;1.90;1.80;;;26.20;28.50;;;;;;5046323;28;20851;-51
2021/12/21 12:34:35;;;;;;;2.58;1.73;;;25.40;29.00;;;;;;5022022;28;20207;-50
2021/12/21 12:37:22;;;;;;;1.77;1.65;;;25.20;29.30;;;;;;5042405;28;20534;-52
2021/12/21 12:39:52;;;;;;;2.20;1.88;;;24.60;28.90;;;;;;5043862;28;20175;-50
2021/12/21 12:42:24;;;;;;;1.60;1.50;;;24.00;29.40;;;;;;5035678;28;20578;-53
2021/12/21 12:45:09;;;;;;;1.45;1.35;;;23.80;29.60;;;;;;5040387;28;20179;-52
2021/12/21 12:47:37;;;;;;;3.13;2.47;;;23.60;29.80;;;;;;5042748;28;20546;-49
2021/12/21 12:50:15;;;;;;;2.97;1.75;;;23.00;29.60;;;;;;5044181;28;20632;-55
2021/12/21 12:52:59;;;;;;;2.10;1.90;;;22.00;30.30;;;;;;5045933;28;20290;-54
2021/12/21 12:55:57;;;;;;;2.30;2.10;;;20.00;31.90;;;;;;5059910;22;20235;-55
2021/12/21 12:58:26;;;;;;;2.30;2.10;;;18.90;33.90;;;;;;4985524;28;20179;-54
2021/12/21 13:01:12;;;;;;;5.88;5.07;;;18.80;34.00;;;;;;4990765;28;20174;-52
2021/12/21 13:03:42;;;;;;;4.00;3.20;;;18.30;33.90;;;;;;4991237;28;20169;-55
2021/12/21 13:06:14;;;;;;;3.60;2.20;;;16.80;35.30;;;;;;4990266;28;20181;-53
2021/12/21 13:08:40;;;;;;;2.20;2.00;;;15.70;37.30;;;;;;4991754;28;20673;-54
2021/12/21 13:11:06;;;;;;;2.50;2.30;;;15.10;41.30;;;;;;4992246;28;20185;-55
2021/12/21 13:13:34;;;;;;;2.83;2.10;;;15.30;43.40;;;;;;4992068;28;20247;-54
2021/12/21 13:16:04;;;;;;;2.37;2.17;;;;;;;;;;4991861;28;20248;-54
2021/12/21 13:18:29;;;;;;;2.43;2.10;;;16.50;50.30;;;;;;4992309;28;20172;-55
2021/12/21 13:20:56;;;;;;;4.53;2.57;;;17.10;48.90;;;;;;4993275;28;20173;-53
2021/12/21 13:23:31;;;;;;;2.57;2.20;;;16.50;42.30;;;;;;4996306;28;20191;-53
2021/12/21 13:26:01;;;;;;;3.07;2.10;;;16.40;54.50;;;;;;4996072;28;20554;-54
2021/12/21 13:28:29;;;;;;;2.77;2.00;;;17.80;38.00;;;;;;4996138;28;20694;-56
2021/12/21 13:30:57;;;;;;;3.97;2.50;;;16.60;36.70;;;;;;4995671;28;20538;-54
2021/12/21 13:33:26;;;;;;;2.87;2.30;;;16.60;46.90;;;;;;4996048;28;20172;-55
2021/12/21 13:35:54;;;;;;;4.50;3.10;;;16.60;37.60;;;;;;4995557;28;20299;-51
2021/12/21 13:38:24;;;;;;;2.90;2.50;;;16.50;37.40;;;;;;4996075;28;20170;-55
2021/12/21 13:41:05;;;;;;;2.83;1.90;;;16.20;38.00;;;;;;4995901;28;20170;-55
2021/12/21 13:43:32;;;;;;;3.00;2.37;;;16.00;38.40;;;;;;4995895;28;20173;-55
2021/12/21 13:46:06;;;;;;;5.80;4.37;;;15.50;38.50;;;;;;4995689;28;20240;-55
2021/12/21 13:48:33;;;;;;;3.60;3.30;;;15.10;39.50;;;;;;4996035;28;20187;-53
2021/12/21 13:51:14;;;;;;;4.03;2.83;;;14.50;41.00;;;;;;4995697;28;20234;-51
2021/12/21 13:53:52;;;;;;;5.00;4.07;;;13.80;41.20;;;;;;4996029;28;20154;-54
2021/12/21 13:56:21;;;;;;;3.07;2.70;;;12.80;42.00;;;;;;4995305;28;20201;-51